Time;durP1;ratioP1;P1;durP2;ratioP2;P2;SDS_P1;SDS_P2;PMS_P1;PMS_P2;Temp;Humidity;BMP_temperature;BMP_pressure;BME280_temperature;BME280_humidity;BME280_pressure;Samples;Min_cycle;Max_cycle;Signal;HPM_P1;HPM_P2
2021/12/21 00:00:47;;;;;;;12.30;5.20;;;-2.30;99.60;;;;;;5075304;28;20043;-81
2021/12/21 00:03:13;;;;;;;8.65;4.60;;;-2.30;99.40;;;;;;5058491;28;20035;-81
2021/12/21 00:05:40;;;;;;;9.55;4.80;;;-2.30;99.40;;;;;;5075953;28;20048;-80
2021/12/21 00:08:09;;;;;;;8.95;3.97;;;-2.40;99.30;;;;;;5058265;28;20105;-80
2021/12/21 00:10:35;;;;;;;9.45;4.13;;;-2.40;99.30;;;;;;5058579;28;20453;-81
2021/12/21 00:13:07;;;;;;;11.45;4.30;;;-2.30;99.40;;;;;;5075125;28;20078;-81
2021/12/21 00:15:45;;;;;;;8.30;4.30;;;-2.40;99.40;;;;;;5074283;28;20499;-81
2021/12/21 00:23:35;;;;;;;10.05;4.40;;;-2.40;99.40;;;;;;5074853;28;20044;-79
2021/12/21 00:26:10;;;;;;;6.43;4.05;;;-2.40;99.40;;;;;;5058690;28;20075;-74
2021/12/21 00:29:01;;;;;;;8.48;4.30;;;-2.50;99.40;;;;;;5057332;28;20097;-80
2021/12/21 00:31:25;;;;;;;8.65;4.40;;;-2.50;99.40;;;;;;5074475;28;20071;-74
2021/12/21 00:33:52;;;;;;;10.23;4.22;;;-2.50;99.40;;;;;;5057906;28;20442;-81
2021/12/21 00:36:20;;;;;;;11.50;4.75;;;-2.60;99.40;;;;;;5053774;28;20084;-79
2021/12/21 00:38:47;;;;;;;7.40;4.43;;;-2.60;99.40;;;;;;5060129;28;20048;-79
2021/12/21 00:41:13;;;;;;;9.05;4.72;;;-2.50;99.50;;;;;;5058095;28;20101;-80
2021/12/21 00:43:39;;;;;;;8.45;4.50;;;-2.60;99.50;;;;;;5057101;28;20052;-80
2021/12/21 00:46:04;;;;;;;8.38;5.00;;;-2.60;99.40;;;;;;5057938;28;20046;-77
2021/12/21 00:48:33;;;;;;;9.30;4.25;;;-2.60;99.50;;;;;;5058060;28;20119;-80
2021/12/21 00:51:01;;;;;;;9.93;4.45;;;-2.60;99.60;;;;;;5073692;28;20135;-76
2021/12/21 00:53:27;;;;;;;11.07;5.35;;;-2.60;99.60;;;;;;5071750;28;20044;-82
2021/12/21 00:55:53;;;;;;;8.82;4.22;;;-2.60;99.60;;;;;;5074440;28;20067;-79
2021/12/21 00:58:19;;;;;;;11.02;4.15;;;-2.60;99.60;;;;;;5056179;28;20110;-78
2021/12/21 01:00:45;;;;;;;6.95;4.47;;;-2.60;99.60;;;;;;5057530;28;20097;-80
2021/12/21 01:03:13;;;;;;;9.93;4.55;;;-2.60;99.60;;;;;;5092012;28;20496;-81
2021/12/21 01:05:52;;;;;;;10.13;4.40;;;-2.60;99.60;;;;;;5073481;28;20040;-79
2021/12/21 01:08:22;;;;;;;7.82;3.97;;;-2.60;99.60;;;;;;5058069;28;20070;-77
2021/12/21 01:13:29;;;;;;;9.85;4.28;;;-2.60;99.70;;;;;;5057858;28;20796;-79
2021/12/21 01:16:03;;;;;;;9.77;4.43;;;-2.70;99.70;;;;;;5057430;28;20044;-79
2021/12/21 01:18:41;;;;;;;10.38;5.43;;;-2.70;99.70;;;;;;5073841;28;21036;-81
2021/12/21 01:21:14;;;;;;;6.78;4.57;;;-2.70;99.70;;;;;;5057080;28;20040;-80
2021/12/21 01:24:02;;;;;;;10.35;5.18;;;-2.70;99.80;;;;;;5054511;28;20593;-81
2021/12/21 01:26:50;;;;;;;8.25;5.15;;;-2.80;99.80;;;;;;5055980;28;20036;-81
2021/12/21 01:31:50;;;;;;;13.27;5.47;;;-2.80;99.80;;;;;;5073545;28;20155;-81
2021/12/21 01:35:27;;;;;;;10.77;5.88;;;-2.80;99.80;;;;;;5073630;28;20044;-81
2021/12/21 01:37:58;;;;;;;11.45;5.53;;;-2.80;99.80;;;;;;5044574;28;20056;-81
2021/12/21 01:50:19;;;;;;;14.13;5.32;;;-3.00;99.80;;;;;;5073150;28;20039;-78
2021/12/21 01:52:45;;;;;;;13.07;5.13;;;-2.90;99.90;;;;;;5073271;28;20202;-79
2021/12/21 01:55:11;;;;;;;10.93;5.00;;;-3.00;99.80;;;;;;5055942;28;20048;-75
2021/12/21 01:57:36;;;;;;;10.25;4.47;;;-3.00;99.90;;;;;;5073470;28;20047;-78
2021/12/21 02:00:05;;;;;;;8.77;4.82;;;-3.00;99.90;;;;;;5056136;28;20133;-71
2021/12/21 02:02:31;;;;;;;10.68;5.65;;;-3.00;99.90;;;;;;5073076;28;20480;-70
2021/12/21 02:04:56;;;;;;;8.60;4.50;;;-3.00;99.90;;;;;;5056588;28;20044;-78
2021/12/21 02:07:22;;;;;;;10.13;5.03;;;-3.00;99.90;;;;;;5069296;28;20377;-79
2021/12/21 02:09:48;;;;;;;13.60;5.22;;;-3.00;99.90;;;;;;5053875;28;20067;-79
2021/12/21 02:12:20;;;;;;;12.80;5.50;;;-3.00;99.90;;;;;;5043708;28;20040;-79
2021/12/21 02:14:53;;;;;;;9.55;5.13;;;-3.00;99.90;;;;;;5072493;28;20106;-79
2021/12/21 02:20:16;;;;;;;7.28;4.45;;;-3.10;99.90;;;;;;5073069;28;19928;-78
2021/12/21 02:23:05;;;;;;;8.23;5.22;;;-3.10;99.90;;;;;;5055685;28;20047;-77
2021/12/21 02:30:26;;;;;;;11.23;5.82;;;-3.10;99.90;;;;;;5072358;28;20052;-80
2021/12/21 02:32:53;;;;;;;11.02;5.68;;;-3.10;99.90;;;;;;5073032;28;20040;-77
2021/12/21 02:35:19;;;;;;;11.52;5.45;;;-3.10;99.90;;;;;;5071442;28;20079;-73
2021/12/21 02:37:45;;;;;;;10.98;6.03;;;-3.20;99.90;;;;;;5073103;28;20845;-78
2021/12/21 02:40:11;;;;;;;10.57;6.45;;;-3.20;99.90;;;;;;5056087;28;20070;-77
2021/12/21 02:42:37;;;;;;;12.27;5.80;;;-3.20;99.90;;;;;;5055666;28;20079;-74
2021/12/21 02:45:05;;;;;;;11.07;6.65;;;-3.20;99.90;;;;;;5072577;28;20433;-74
2021/12/21 02:47:31;;;;;;;10.75;5.85;;;-3.20;99.90;;;;;;5068072;28;20052;-77
2021/12/21 02:49:58;;;;;;;10.45;6.32;;;-3.20;99.90;;;;;;5044568;28;20044;-76
2021/12/21 02:52:23;;;;;;;10.55;6.20;;;-3.20;99.90;;;;;;5056144;28;20054;-77
2021/12/21 02:54:49;;;;;;;10.75;6.60;;;-3.20;99.90;;;;;;5071408;28;20044;-76
2021/12/21 02:57:15;;;;;;;10.00;5.97;;;-3.30;99.90;;;;;;5071991;28;20504;-75
2021/12/21 02:59:40;;;;;;;11.60;6.72;;;-3.20;99.90;;;;;;5071911;28;20035;-77
2021/12/21 03:02:06;;;;;;;11.38;6.20;;;-3.30;99.90;;;;;;5072806;28;20036;-77
2021/12/21 03:04:32;;;;;;;10.93;6.68;;;-3.30;99.90;;;;;;5054802;28;20044;-77
2021/12/21 03:09:54;;;;;;;9.85;7.03;;;-3.30;99.90;;;;;;5090348;28;20051;-76
2021/12/21 03:14:51;;;;;;;9.93;6.75;;;-3.40;99.90;;;;;;5072406;28;20083;-73
2021/12/21 03:17:17;;;;;;;12.15;6.60;;;-3.40;99.90;;;;;;5071841;28;20036;-77
2021/12/21 03:19:43;;;;;;;8.98;5.82;;;-3.40;99.90;;;;;;5072615;28;20102;-76
2021/12/21 03:22:11;;;;;;;12.52;6.78;;;-3.40;99.90;;;;;;5082950;28;20051;-77
2021/12/21 03:24:38;;;;;;;9.60;6.60;;;-3.40;99.90;;;;;;5052650;28;20044;-77
2021/12/21 03:27:04;;;;;;;8.63;6.20;;;-3.40;99.90;;;;;;5072479;28;20047;-81
2021/12/21 03:29:31;;;;;;;11.30;6.82;;;-3.40;99.90;;;;;;5059328;28;20051;-82
2021/12/21 03:31:57;;;;;;;8.27;6.57;;;-3.40;99.90;;;;;;5058497;28;20044;-83
2021/12/21 03:34:23;;;;;;;11.57;6.78;;;-3.50;99.90;;;;;;5059397;28;20048;-82
2021/12/21 03:36:49;;;;;;;8.25;6.47;;;-3.50;99.90;;;;;;5076028;28;20040;-82
2021/12/21 03:39:19;;;;;;;9.73;6.22;;;-3.40;99.90;;;;;;5075831;28;20132;-81
2021/12/21 03:41:48;;;;;;;10.02;6.57;;;-3.50;99.90;;;;;;5059561;28;20044;-82
2021/12/21 03:44:16;;;;;;;10.88;6.18;;;-3.50;99.90;;;;;;5059516;28;20044;-82
2021/12/21 03:46:51;;;;;;;10.07;6.00;;;-3.50;99.90;;;;;;5075309;28;20071;-82
2021/12/21 03:51:51;;;;;;;8.60;5.63;;;-3.50;99.90;;;;;;5075213;28;20403;-82
2021/12/21 03:54:17;;;;;;;8.98;6.50;;;-3.50;99.90;;;;;;5058016;28;20130;-83
2021/12/21 03:56:47;;;;;;;13.18;7.40;;;-3.60;99.90;;;;;;5059373;28;20064;-73
2021/12/21 03:59:12;;;;;;;10.70;7.55;;;-3.60;99.90;;;;;;5075592;28;20047;-77
2021/12/21 04:01:38;;;;;;;14.95;7.70;;;-3.60;99.90;;;;;;5075452;28;20123;-77
2021/12/21 04:04:04;;;;;;;12.25;7.15;;;-3.60;99.90;;;;;;5058884;28;20059;-74
2021/12/21 04:06:30;;;;;;;10.55;6.63;;;-3.60;99.90;;;;;;5074438;28;20089;-74
2021/12/21 04:08:55;;;;;;;11.00;7.20;;;-3.70;99.90;;;;;;5075486;28;20074;-77
2021/12/21 04:11:21;;;;;;;10.25;7.00;;;-3.60;99.90;;;;;;5067860;28;20047;-80
2021/12/21 04:13:47;;;;;;;12.15;7.90;;;-3.60;99.90;;;;;;5075005;28;20072;-78
2021/12/21 04:16:12;;;;;;;12.10;6.70;;;-3.60;99.90;;;;;;5075294;28;20048;-82
2021/12/21 04:18:40;;;;;;;12.73;7.60;;;-3.70;99.90;;;;;;5059252;28;20050;-82
2021/12/21 04:21:09;;;;;;;12.38;7.35;;;-3.60;99.90;;;;;;5058260;28;20091;-82
2021/12/21 04:23:35;;;;;;;10.98;6.75;;;-3.70;99.90;;;;;;5075430;28;20051;-78
2021/12/21 04:26:01;;;;;;;15.65;7.35;;;-3.70;99.90;;;;;;5058202;28;20074;-77
2021/12/21 04:28:27;;;;;;;10.60;7.00;;;-3.70;99.90;;;;;;5074637;28;20050;-79
2021/12/21 04:30:53;;;;;;;12.68;7.60;;;-3.70;99.90;;;;;;5075015;28;20546;-78
2021/12/21 04:33:18;;;;;;;13.15;8.30;;;-3.70;99.90;;;;;;5075218;28;20079;-78
2021/12/21 04:35:44;;;;;;;11.02;6.95;;;-3.70;99.90;;;;;;5074298;28;20056;-77
2021/12/21 04:38:23;;;;;;;11.27;7.60;;;-3.70;99.90;;;;;;5092711;28;20570;-78
2021/12/21 04:40:55;;;;;;;12.50;7.65;;;-3.70;99.90;;;;;;5075115;28;20090;-70
2021/12/21 04:43:21;;;;;;;14.02;7.57;;;-3.80;99.90;;;;;;5074540;28;20047;-77
2021/12/21 04:45:47;;;;;;;10.15;7.47;;;-3.80;99.90;;;;;;5074794;28;20510;-76
2021/12/21 04:48:13;;;;;;;11.05;6.53;;;-3.80;99.90;;;;;;5074490;28;20055;-77
2021/12/21 04:50:40;;;;;;;14.85;8.68;;;-3.80;99.90;;;;;;5073845;28;20454;-77
2021/12/21 04:53:06;;;;;;;10.55;7.93;;;-3.80;99.90;;;;;;5074287;28;20488;-76
2021/12/21 04:55:32;;;;;;;14.63;8.00;;;-3.80;99.90;;;;;;5074531;28;20058;-70
2021/12/21 04:57:57;;;;;;;14.73;7.63;;;-3.80;99.90;;;;;;5056911;28;20048;-74
2021/12/21 05:00:23;;;;;;;11.85;7.95;;;-3.80;99.90;;;;;;5074181;28;20040;-75
2021/12/21 05:02:49;;;;;;;11.38;7.50;;;-3.80;99.90;;;;;;5056524;28;20051;-75
2021/12/21 05:05:14;;;;;;;14.73;7.90;;;-3.80;99.90;;;;;;5073839;28;20127;-76
2021/12/21 05:07:43;;;;;;;15.07;8.18;;;-3.90;99.90;;;;;;5074041;28;20036;-78
2021/12/21 05:10:10;;;;;;;12.00;8.23;;;-3.80;99.90;;;;;;5057273;28;20131;-78
2021/12/21 05:12:36;;;;;;;12.77;8.20;;;-3.80;99.90;;;;;;5058317;28;20455;-79
2021/12/21 05:15:04;;;;;;;15.07;8.07;;;-3.90;99.90;;;;;;5073793;28;20408;-79
2021/12/21 05:17:30;;;;;;;13.75;7.85;;;-3.90;99.90;;;;;;5073381;28;20535;-77
2021/12/21 05:19:55;;;;;;;11.32;8.50;;;-3.90;99.90;;;;;;5074119;28;20136;-78
2021/12/21 05:22:21;;;;;;;12.25;7.95;;;-3.90;99.90;;;;;;5039717;28;20067;-77
2021/12/21 05:24:47;;;;;;;17.08;8.20;;;-3.90;99.90;;;;;;5073488;28;20044;-78
2021/12/21 05:27:13;;;;;;;13.82;8.25;;;-4.00;99.90;;;;;;5057071;28;20101;-78
2021/12/21 05:29:39;;;;;;;14.95;7.65;;;-4.00;99.90;;;;;;5073508;28;20044;-78
2021/12/21 05:32:05;;;;;;;11.85;6.85;;;-3.90;99.90;;;;;;5073903;28;20054;-75
2021/12/21 05:34:32;;;;;;;14.77;8.52;;;-4.00;99.90;;;;;;5072943;28;20044;-78
2021/12/21 05:36:58;;;;;;;13.05;7.80;;;-4.00;99.90;;;;;;5073939;28;20082;-79
2021/12/21 05:39:27;;;;;;;13.85;8.02;;;-4.00;99.90;;;;;;5056496;28;20450;-78
2021/12/21 05:41:55;;;;;;;15.05;8.43;;;-4.00;99.90;;;;;;5056988;28;20476;-78
2021/12/21 05:44:24;;;;;;;17.17;7.93;;;-4.00;99.90;;;;;;5071961;28;20080;-77
2021/12/21 05:46:52;;;;;;;12.10;8.15;;;-4.00;99.90;;;;;;5056412;28;20101;-77
2021/12/21 05:49:18;;;;;;;11.77;7.25;;;-4.00;99.90;;;;;;5056540;28;20036;-77
2021/12/21 05:51:45;;;;;;;11.35;7.93;;;-4.00;99.90;;;;;;5073457;28;20119;-72
2021/12/21 05:54:12;;;;;;;14.55;8.13;;;-4.00;99.90;;;;;;5055809;28;20048;-77
2021/12/21 05:56:38;;;;;;;12.10;8.73;;;-4.10;99.90;;;;;;5073994;28;20094;-78
2021/12/21 05:59:03;;;;;;;15.07;8.82;;;-4.00;99.90;;;;;;5089700;28;20096;-77
2021/12/21 06:01:33;;;;;;;14.10;8.27;;;-4.10;99.90;;;;;;5073779;28;20051;-78
2021/12/21 06:04:03;;;;;;;16.83;8.27;;;-4.10;99.90;;;;;;5072547;28;20134;-78
2021/12/21 06:06:31;;;;;;;11.32;8.13;;;-4.10;99.90;;;;;;5055585;28;20040;-76
2021/12/21 06:08:59;;;;;;;9.65;7.38;;;-4.10;99.90;;;;;;5056222;28;20036;-71
2021/12/21 06:11:25;;;;;;;13.70;8.75;;;-4.10;99.90;;;;;;5072291;28;20484;-76
2021/12/21 06:22:43;;;;;;;18.38;7.57;;;-4.10;99.90;;;;;;5073125;28;20404;-72
2021/12/21 06:27:17;;;;;;;14.77;9.35;;;-4.10;99.90;;;;;;5071807;28;20404;-79
2021/12/21 06:29:43;;;;;;;13.30;9.70;;;-4.00;99.90;;;;;;5056556;28;20040;-79
2021/12/21 06:32:09;;;;;;;14.45;8.90;;;-4.20;99.90;;;;;;5072957;28;20469;-82
2021/12/21 06:34:35;;;;;;;13.50;9.05;;;-4.20;99.90;;;;;;5055730;28;20089;-82
2021/12/21 06:37:01;;;;;;;14.65;9.60;;;-4.20;99.90;;;;;;5072971;28;20036;-81
2021/12/21 06:39:28;;;;;;;13.43;8.20;;;-4.20;99.90;;;;;;5072702;28;20040;-77
2021/12/21 06:41:56;;;;;;;13.32;9.27;;;-4.20;99.90;;;;;;5071405;28;20052;-84
2021/12/21 06:44:21;;;;;;;14.75;9.43;;;-4.20;99.90;;;;;;5072834;28;20056;-83
2021/12/21 06:52:22;;;;;;;13.50;9.35;;;-4.20;99.90;;;;;;5051505;28;20340;-81
2021/12/21 06:54:48;;;;;;;13.95;9.50;;;-4.30;99.90;;;;;;5055375;28;20044;-80
2021/12/21 06:57:14;;;;;;;14.43;10.10;;;-4.30;99.90;;;;;;5071949;28;20032;-81
2021/12/21 06:59:39;;;;;;;16.02;10.18;;;-4.30;99.90;;;;;;5072872;28;20047;-82
2021/12/21 07:02:06;;;;;;;13.13;9.48;;;-4.30;99.90;;;;;;5073919;28;20052;-75
2021/12/21 07:04:32;;;;;;;19.85;10.18;;;-4.30;99.90;;;;;;5075949;28;20488;-75
2021/12/21 07:06:58;;;;;;;13.13;9.02;;;-4.30;99.90;;;;;;5076116;28;20074;-75
2021/12/21 07:09:33;;;;;;;16.83;9.93;;;-4.30;99.90;;;;;;5074977;28;20044;-76
2021/12/21 07:12:29;;;;;;;13.20;9.95;;;-4.30;99.90;;;;;;5076148;28;20130;-72
2021/12/21 07:20:23;;;;;;;13.27;9.23;;;-4.30;99.90;;;;;;5076171;28;20130;-70
2021/12/21 07:22:49;;;;;;;14.32;9.90;;;-4.30;99.90;;;;;;5076147;28;20222;-74
2021/12/21 07:25:15;;;;;;;20.13;10.20;;;-4.30;99.90;;;;;;5059124;28;20056;-74
2021/12/21 07:27:42;;;;;;;17.52;10.35;;;-4.30;99.90;;;;;;5058181;28;20059;-75
2021/12/21 07:30:08;;;;;;;16.67;10.32;;;-4.30;99.90;;;;;;5054259;28;20122;-76
2021/12/21 07:32:34;;;;;;;16.98;10.43;;;-4.30;99.90;;;;;;5074238;28;20073;-78
2021/12/21 07:35:00;;;;;;;16.88;10.68;;;-4.30;99.90;;;;;;5074199;28;20393;-76
2021/12/21 07:37:25;;;;;;;14.25;9.52;;;-4.30;99.90;;;;;;5075406;28;20506;-79
2021/12/21 07:39:52;;;;;;;16.33;10.75;;;-4.30;99.90;;;;;;5055211;28;20045;-75
2021/12/21 07:42:19;;;;;;;17.25;9.82;;;-4.30;99.90;;;;;;5066976;28;20044;-76
2021/12/21 07:44:46;;;;;;;17.05;9.77;;;-4.30;99.90;;;;;;5058550;28;20164;-77
2021/12/21 07:47:12;;;;;;;15.57;11.00;;;-4.20;99.90;;;;;;5075296;28;20404;-76
2021/12/21 07:49:38;;;;;;;17.80;12.95;;;-4.20;99.90;;;;;;5075794;28;20060;-78
2021/12/21 07:52:07;;;;;;;17.17;11.45;;;-4.20;99.90;;;;;;5073812;28;20469;-78
2021/12/21 07:54:33;;;;;;;16.15;11.88;;;-4.20;99.90;;;;;;5057229;28;20051;-77
2021/12/21 07:56:58;;;;;;;14.50;11.25;;;-4.20;99.90;;;;;;5065849;28;20538;-73
2021/12/21 07:59:24;;;;;;;13.95;11.57;;;-4.10;99.90;;;;;;5074986;28;20074;-77
2021/12/21 08:01:53;;;;;;;18.17;11.50;;;-4.10;99.90;;;;;;5092334;28;20072;-76
2021/12/21 08:04:27;;;;;;;15.45;11.73;;;-4.20;99.90;;;;;;5075277;28;20048;-76
2021/12/21 08:06:55;;;;;;;14.68;10.95;;;-4.10;99.90;;;;;;5054667;28;20036;-77
2021/12/21 08:09:21;;;;;;;20.98;12.73;;;-4.10;99.90;;;;;;5070186;28;20070;-77
2021/12/21 08:14:32;;;;;;;16.52;10.77;;;-4.00;99.90;;;;;;5072800;28;20048;-77
2021/12/21 08:16:57;;;;;;;16.80;11.10;;;-4.00;99.90;;;;;;5075131;28;20476;-77
2021/12/21 08:19:23;;;;;;;15.38;10.27;;;-4.00;99.90;;;;;;5075330;28;20117;-77
2021/12/21 08:21:48;;;;;;;17.33;11.05;;;-4.00;99.90;;;;;;5093001;28;20116;-73
2021/12/21 08:24:14;;;;;;;18.55;11.00;;;-4.00;99.90;;;;;;5093552;28;20498;-75
2021/12/21 08:26:40;;;;;;;15.68;11.32;;;-4.00;99.90;;;;;;5074338;28;20090;-71
2021/12/21 08:29:05;;;;;;;17.35;10.77;;;-3.90;99.90;;;;;;5075112;28;20055;-75
2021/12/21 08:31:31;;;;;;;14.77;10.50;;;-3.90;99.90;;;;;;5074924;28;20051;-76
2021/12/21 08:33:57;;;;;;;15.25;10.77;;;-3.80;99.90;;;;;;5074797;28;20067;-76
2021/12/21 08:36:22;;;;;;;14.07;10.98;;;-3.80;99.90;;;;;;5074559;28;20400;-76
2021/12/21 08:38:48;;;;;;;15.48;10.30;;;-3.80;99.90;;;;;;5075116;28;20190;-75
2021/12/21 08:41:13;;;;;;;17.65;9.50;;;-3.80;99.90;;;;;;5073919;28;20051;-75
2021/12/21 08:43:39;;;;;;;16.52;9.63;;;-3.70;99.90;;;;;;5093103;28;20805;-75
2021/12/21 08:46:08;;;;;;;15.98;9.90;;;-3.70;99.90;;;;;;5074983;28;20052;-75
2021/12/21 08:48:35;;;;;;;21.13;9.73;;;-3.70;99.90;;;;;;5074232;28;20395;-71
2021/12/21 08:51:00;;;;;;;13.45;9.82;;;-3.60;99.90;;;;;;5075045;28;20106;-76
2021/12/21 08:53:27;;;;;;;16.27;9.75;;;-3.50;99.90;;;;;;5058203;28;20044;-71
2021/12/21 08:55:53;;;;;;;16.30;9.93;;;-3.50;99.90;;;;;;5073098;28;20048;-77
2021/12/21 08:58:19;;;;;;;19.02;10.80;;;-3.50;99.90;;;;;;5074088;28;20070;-75
2021/12/21 09:00:45;;;;;;;14.73;10.88;;;-3.40;99.90;;;;;;5073795;28;20383;-76
2021/12/21 09:03:11;;;;;;;16.60;11.73;;;-3.40;99.90;;;;;;5071750;28;20043;-77
2021/12/21 09:05:39;;;;;;;16.65;10.23;;;-3.30;99.90;;;;;;5055452;28;20044;-74
2021/12/21 09:08:06;;;;;;;16.77;10.00;;;-3.20;99.90;;;;;;5074370;28;20078;-75
2021/12/21 09:10:33;;;;;;;16.65;10.77;;;-3.20;99.90;;;;;;5054525;28;20055;-76
2021/12/21 09:12:59;;;;;;;19.23;11.73;;;-3.10;99.90;;;;;;5053776;28;20595;-78
2021/12/21 09:15:28;;;;;;;16.95;12.23;;;-3.00;99.90;;;;;;5073507;28;20056;-77
2021/12/21 09:17:56;;;;;;;17.05;11.93;;;-2.90;99.90;;;;;;5054932;28;20127;-70
2021/12/21 09:20:24;;;;;;;19.60;12.40;;;-2.80;99.90;;;;;;5053545;28;20056;-78
2021/12/21 09:22:51;;;;;;;15.43;11.85;;;-2.70;99.90;;;;;;5061597;28;20040;-78
2021/12/21 09:25:17;;;;;;;21.88;14.80;;;-2.60;99.90;;;;;;5063939;28;20044;-78
2021/12/21 09:27:44;;;;;;;24.17;16.48;;;-2.50;99.90;;;;;;5039113;28;20435;-77
2021/12/21 09:30:15;;;;;;;24.13;15.75;;;-2.40;99.90;;;;;;5072336;28;20036;-78
2021/12/21 09:32:41;;;;;;;19.92;14.70;;;-2.30;99.90;;;;;;5054320;28;20546;-78
2021/12/21 09:35:08;;;;;;;21.38;16.55;;;-2.20;99.90;;;;;;5074030;28;20068;-78
2021/12/21 09:37:33;;;;;;;20.40;15.60;;;-2.20;99.90;;;;;;5055964;28;20098;-78
2021/12/21 09:40:00;;;;;;;27.55;18.70;;;-2.10;99.90;;;;;;5071947;28;20051;-77
2021/12/21 09:42:28;;;;;;;19.58;16.60;;;-2.00;99.90;;;;;;5069828;28;20036;-77
2021/12/21 09:44:55;;;;;;;28.65;18.02;;;-1.90;99.90;;;;;;5066794;28;20040;-71
2021/12/21 09:47:22;;;;;;;24.92;17.40;;;-1.90;99.90;;;;;;5044016;28;20064;-75
2021/12/21 09:49:49;;;;;;;21.88;18.00;;;-1.70;99.90;;;;;;5049686;28;20040;-74
2021/12/21 09:52:21;;;;;;;28.25;19.15;;;-1.60;99.90;;;;;;5052679;28;20041;-75
2021/12/21 09:54:48;;;;;;;29.60;20.55;;;-1.60;99.90;;;;;;5048816;28;20040;-75
2021/12/21 09:57:17;;;;;;;23.08;18.95;;;-1.50;99.90;;;;;;5051953;28;20095;-74
2021/12/21 09:59:45;;;;;;;31.85;19.80;;;-1.40;99.90;;;;;;5049674;28;20036;-69
2021/12/21 10:02:11;;;;;;;31.10;20.70;;;-1.20;99.90;;;;;;5041554;28;20052;-68
2021/12/21 10:04:59;;;;;;;26.38;19.35;;;-1.10;99.90;;;;;;5039298;28;20106;-71
2021/12/21 10:07:26;;;;;;;28.65;21.80;;;-1.00;99.90;;;;;;5044200;28;20060;-72
2021/12/21 10:10:15;;;;;;;32.58;20.10;;;-0.90;99.90;;;;;;5048829;28;20128;-70
2021/12/21 10:12:43;;;;;;;30.40;21.45;;;-0.80;99.90;;;;;;5051064;28;20114;-79
2021/12/21 10:15:15;;;;;;;29.60;22.45;;;-0.80;99.90;;;;;;5051104;28;20689;-75
2021/12/21 10:17:54;;;;;;;29.85;22.38;;;-0.70;99.90;;;;;;5050595;28;20076;-76
2021/12/21 10:20:47;;;;;;;39.05;27.20;;;-0.60;99.90;;;;;;5034416;28;20112;-68
2021/12/21 10:23:19;;;;;;;38.67;29.80;;;-0.50;99.90;;;;;;5051367;28;20442;-71
2021/12/21 10:25:51;;;;;;;42.67;28.48;;;-0.40;99.90;;;;;;5050626;28;20102;-75
2021/12/21 10:28:53;;;;;;;36.25;28.65;;;-0.30;99.90;;;;;;5050483;28;20396;-69
2021/12/21 10:31:32;;;;;;;43.25;29.17;;;-0.10;99.90;;;;;;5046057;28;20044;-70
2021/12/21 10:34:01;;;;;;;38.40;26.58;;;0.00;99.90;;;;;;5047646;28;20521;-78
2021/12/21 10:36:29;;;;;;;40.67;30.88;;;0.10;99.90;;;;;;5028518;28;20040;-71
2021/12/21 10:38:57;;;;;;;40.80;30.33;;;0.20;99.90;;;;;;5050203;28;20079;-71
2021/12/21 10:41:37;;;;;;;35.38;29.00;;;0.30;99.90;;;;;;5051812;28;20083;-71
2021/12/21 10:44:12;;;;;;;38.25;29.38;;;0.40;99.90;;;;;;5052257;28;20433;-79
2021/12/21 10:46:44;;;;;;;38.83;27.50;;;0.50;99.90;;;;;;5047537;28;20060;-73
2021/12/21 10:49:18;;;;;;;36.58;27.92;;;0.60;99.90;;;;;;5025867;28;20052;-78
2021/12/21 10:51:55;;;;;;;40.40;29.58;;;0.70;99.90;;;;;;5032931;28;20628;-77
2021/12/21 10:54:31;;;;;;;31.85;27.65;;;0.80;99.90;;;;;;5045516;28;20504;-72
2021/12/21 10:57:04;;;;;;;35.63;26.27;;;0.90;99.90;;;;;;5046194;28;20346;-77
2021/12/21 10:59:35;;;;;;;33.22;25.20;;;1.00;99.90;;;;;;5041779;28;20045;-76
2021/12/21 11:02:24;;;;;;;29.23;24.00;;;1.00;99.90;;;;;;5052909;28;20072;-77
2021/12/21 11:04:55;;;;;;;27.50;21.88;;;1.10;99.90;;;;;;5052368;28;20048;-78
2021/12/21 11:07:31;;;;;;;32.78;22.15;;;1.20;99.90;;;;;;5051481;28;20036;-77
2021/12/21 11:10:15;;;;;;;28.23;20.25;;;1.30;99.90;;;;;;5035190;28;20048;-71
2021/12/21 11:12:49;;;;;;;24.42;18.48;;;1.40;99.90;;;;;;5051238;28;20139;-77
2021/12/21 11:15:18;;;;;;;30.08;18.52;;;1.50;99.90;;;;;;5033776;28;20847;-77
2021/12/21 11:17:44;;;;;;;27.52;19.15;;;1.50;99.90;;;;;;5051064;28;20076;-76
2021/12/21 11:20:12;;;;;;;22.30;16.30;;;1.60;99.90;;;;;;5051226;28;20072;-79
2021/12/21 11:22:40;;;;;;;24.48;18.15;;;1.70;99.90;;;;;;5050982;28;20040;-74
2021/12/21 11:25:07;;;;;;;19.35;15.25;;;1.70;99.90;;;;;;5044032;28;20045;-74
2021/12/21 11:27:35;;;;;;;22.33;16.50;;;1.80;99.90;;;;;;5033553;28;20507;-74
2021/12/21 11:30:06;;;;;;;20.73;16.83;;;1.90;99.90;;;;;;5050571;28;20047;-78
2021/12/21 11:32:34;;;;;;;22.20;14.95;;;2.00;99.90;;;;;;5034427;28;20043;-79
2021/12/21 11:37:47;;;;;;;23.52;14.18;;;2.10;99.90;;;;;;5031647;28;20041;-73
2021/12/21 11:40:19;;;;;;;18.70;12.77;;;2.20;99.90;;;;;;5039432;28;20094;-80
2021/12/21 11:42:51;;;;;;;;;;;2.30;99.70;;;;;;5051504;28;20048;-79
2021/12/21 11:45:34;;;;;;;16.52;11.60;;;2.40;99.40;;;;;;5051097;28;19928;-74
2021/12/21 11:48:17;;;;;;;15.88;11.77;;;2.40;99.30;;;;;;5066329;28;20056;-80
2021/12/21 11:50:48;;;;;;;14.55;10.57;;;2.50;99.10;;;;;;5047074;28;20045;-80
2021/12/21 11:53:17;;;;;;;14.50;10.30;;;2.60;98.90;;;;;;5054284;28;20101;-79
2021/12/21 11:55:46;;;;;;;18.60;12.02;;;2.70;98.70;;;;;;5037502;28;20198;-78
2021/12/21 11:58:25;;;;;;;14.00;10.30;;;2.70;98.50;;;;;;5054373;28;20094;-80
2021/12/21 12:01:00;;;;;;;17.95;11.07;;;2.80;98.40;;;;;;5054090;28;20041;-80
2021/12/21 12:03:28;;;;;;;14.18;11.40;;;2.80;98.20;;;;;;5054198;28;20052;-80
2021/12/21 12:06:06;;;;;;;21.77;12.50;;;2.90;98.10;;;;;;5055015;28;20044;-81
2021/12/21 12:08:43;;;;;;;15.93;10.45;;;2.90;98.00;;;;;;5047251;28;20071;-81
2021/12/21 12:11:21;;;;;;;21.67;11.43;;;2.90;97.80;;;;;;5055239;28;20084;-77
2021/12/21 12:13:47;;;;;;;16.10;11.95;;;3.00;97.80;;;;;;5054262;28;20040;-79
2021/12/21 12:16:14;;;;;;;15.50;10.73;;;3.00;97.70;;;;;;5054693;28;20032;-79
2021/12/21 12:18:49;;;;;;;16.00;11.13;;;3.10;97.60;;;;;;5037460;28;20048;-81
2021/12/21 12:21:24;;;;;;;14.57;10.65;;;3.20;97.50;;;;;;5036615;28;20041;-74
2021/12/21 12:24:00;;;;;;;17.98;11.90;;;3.20;97.40;;;;;;5018116;28;20121;-81
2021/12/21 12:26:38;;;;;;;13.75;11.27;;;3.20;97.30;;;;;;5039269;28;20041;-81
2021/12/21 12:29:15;;;;;;;12.88;10.38;;;3.30;97.30;;;;;;5038818;28;20040;-75
2021/12/21 12:31:45;;;;;;;14.50;11.25;;;3.40;97.20;;;;;;5036759;28;20117;-74
2021/12/21 12:34:23;;;;;;;17.58;12.45;;;3.50;97.50;;;;;;5053641;28;20040;-80
2021/12/21 12:36:54;;;;;;;18.13;10.52;;;3.90;99.10;;;;;;5036873;28;20535;-76
2021/12/21 12:39:34;;;;;;;13.05;9.63;;;4.90;98.10;;;;;;5053772;28;20049;-80
2021/12/21 12:42:10;;;;;;;12.35;9.15;;;6.10;96.10;;;;;;5051084;28;20087;-81
2021/12/21 12:44:38;;;;;;;12.50;8.90;;;7.00;93.60;;;;;;5037445;28;20132;-80
2021/12/21 12:47:08;;;;;;;15.90;8.68;;;7.40;92.20;;;;;;5033062;28;20069;-75
2021/12/21 12:49:36;;;;;;;10.82;8.52;;;7.70;92.20;;;;;;5045149;28;20172;-81
2021/12/21 12:52:13;;;;;;;11.48;7.82;;;8.30;91.20;;;;;;5035068;28;20485;-81
2021/12/21 12:54:59;;;;;;;9.65;7.65;;;8.90;89.50;;;;;;5034417;28;20051;-81
2021/12/21 12:57:37;;;;;;;13.02;8.75;;;9.40;85.00;;;;;;5017159;28;20060;-81
2021/12/21 13:00:15;;;;;;;11.90;7.50;;;9.80;83.80;;;;;;5018797;28;20067;-81
2021/12/21 13:03:06;;;;;;;10.80;7.70;;;10.20;81.80;;;;;;5054012;28;20084;-81
2021/12/21 13:05:55;;;;;;;10.90;7.60;;;10.60;78.80;;;;;;5037040;28;20045;-81
2021/12/21 13:08:25;;;;;;;12.98;7.68;;;10.80;78.50;;;;;;5035835;28;20086;-76
2021/12/21 13:10:53;;;;;;;13.05;8.35;;;10.90;77.30;;;;;;5035670;28;20392;-75
2021/12/21 13:13:20;;;;;;;11.18;7.68;;;10.90;76.00;;;;;;5052917;28;20049;-79
2021/12/21 13:15:52;;;;;;;9.73;7.55;;;10.60;75.00;;;;;;5033628;28;20150;-74
2021/12/21 13:18:19;;;;;;;11.60;8.50;;;9.90;73.70;;;;;;5036414;28;20480;-80
2021/12/21 13:20:51;;;;;;;11.73;7.97;;;9.10;75.80;;;;;;5041833;28;20051;-76
2021/12/21 13:23:26;;;;;;;11.90;8.68;;;8.20;77.50;;;;;;5057418;28;20050;-73
2021/12/21 13:26:07;;;;;;;10.10;8.20;;;7.40;79.10;;;;;;5052742;28;20127;-74
2021/12/21 13:28:45;;;;;;;13.48;9.20;;;6.70;82.50;;;;;;5052295;28;20086;-79
2021/12/21 13:31:10;;;;;;;12.52;9.75;;;6.10;84.60;;;;;;5037902;28;20067;-82
2021/12/21 13:33:40;;;;;;;14.18;9.75;;;5.90;87.10;;;;;;5033458;28;20166;-76
2021/12/21 13:36:08;;;;;;;11.13;9.25;;;5.80;88.20;;;;;;5033079;28;20051;-73
2021/12/21 13:38:37;;;;;;;14.70;9.95;;;5.70;88.50;;;;;;5050614;28;20469;-73
2021/12/21 13:41:04;;;;;;;16.08;10.10;;;5.50;88.20;;;;;;5035795;28;20496;-74
2021/12/21 13:43:29;;;;;;;14.35;10.27;;;5.20;89.00;;;;;;5029248;28;20536;-84
2021/12/21 13:46:00;;;;;;;11.80;9.57;;;4.90;90.00;;;;;;5049470;28;20086;-77
2021/12/21 13:48:27;;;;;;;15.63;9.70;;;4.60;90.60;;;;;;5054713;28;20048;-84
2021/12/21 13:50:53;;;;;;;15.30;11.80;;;4.50;91.20;;;;;;5054983;28;20082;-75